Albatros — DITX — position and weather

sailwx.info

Track history (hours):
 
Tides and Currents Weather Stations Pressure Air Temp Water Temp Dewpoint Dewpoint Depression Visibility Wind Speed Wind Dir Waves Ship Positions

Albatros

Last reported at 2015-Aug-30 09:32 UTC. Time now 2015-Aug-30 09:55 UTC.
Position N 54°42' E 013°11'.

Length 16 m.

MMSI: 211226200.

Date/timePositionNaut miles runAvg speedWind from/ knotsBaromVisibWave heightAir tempDewpointWater temp
2015-Aug-30 09:32N 54°42' E 013°11'1 0.5
2015-Aug-30 08:33N 54°41' E 013°10'0 0.0
2015-Aug-30 07:33N 54°41' E 013°10'2 1.6
2015-Aug-30 06:33N 54°40' E 013°10'7 6.6
2015-Aug-30 05:33N 54°33' E 013°09'  
2015-Aug-23 11:30N 54°40' E 013°12'2 1.8
2015-Aug-23 10:34N 54°42' E 013°12'1 1.0
2015-Aug-23 09:33N 54°41' E 013°10'0 0.3
2015-Aug-23 08:33N 54°42' E 013°11'0 0.4
2015-Aug-23 07:33N 54°41' E 013°10'4 3.5
2015-Aug-23 06:19N 54°37' E 013°10'4 5.4
2015-Aug-23 05:33N 54°33' E 013°08'2 0.1
2015-Aug-22 13:08N 54°31' E 013°09'3 5.0
2015-Aug-22 12:28N 54°34' E 013°10'6 7.0
2015-Aug-22 11:33N 54°41' E 013°12'1 1.3
2015-Aug-22 10:29N 54°42' E 013°12'1 0.3
2015-Aug-22 08:26N 54°42' E 013°11'1 0.6
2015-Aug-22 07:33N 54°42' E 013°10'4 3.8
2015-Aug-22 06:23N 54°37' E 013°10'4 5.2
2015-Aug-22 05:33N 54°33' E 013°08'  
Track history (hours):
 
Tides and Currents Weather Stations Pressure Air Temp Water Temp Dewpoint Dewpoint Depression Visibility Wind Speed Wind Dir Waves Ship Positions

Albatros

Last reported at 2015-Aug-30 09:32 UTC. Time now 2015-Aug-30 09:55 UTC.
Position N 54°42' E 013°11'.

Length 16 m.

MMSI: 211226200.

Date/timePositionNaut miles runAvg speedWind from/ knotsBaromVisibWave heightAir tempDewpointWater temp
2015-Aug-30 09:32N 54°42' E 013°11'1 0.5
2015-Aug-30 08:33N 54°41' E 013°10'0 0.0
2015-Aug-30 07:33N 54°41' E 013°10'2 1.6
2015-Aug-30 06:33N 54°40' E 013°10'7 6.6
2015-Aug-30 05:33N 54°33' E 013°09'  
2015-Aug-23 11:30N 54°40' E 013°12'2 1.8
2015-Aug-23 10:34N 54°42' E 013°12'1 1.0
2015-Aug-23 09:33N 54°41' E 013°10'0 0.3
2015-Aug-23 08:33N 54°42' E 013°11'0 0.4
2015-Aug-23 07:33N 54°41' E 013°10'4 3.5
2015-Aug-23 06:19N 54°37' E 013°10'4 5.4
2015-Aug-23 05:33N 54°33' E 013°08'2 0.1
2015-Aug-22 13:08N 54°31' E 013°09'3 5.0
2015-Aug-22 12:28N 54°34' E 013°10'6 7.0
2015-Aug-22 11:33N 54°41' E 013°12'1 1.3
2015-Aug-22 10:29N 54°42' E 013°12'1 0.3
2015-Aug-22 08:26N 54°42' E 013°11'1 0.6
2015-Aug-22 07:33N 54°42' E 013°10'4 3.8
2015-Aug-22 06:23N 54°37' E 013°10'4 5.2
2015-Aug-22 05:33N 54°33' E 013°08'  

Dump ship's entire track history